createdAt,value
2022-10-25T00:03:56.731Z,100114.81
2022-10-25T00:08:59.596Z,100119.28
2022-10-25T00:14:20.668Z,100146.34
2022-10-25T00:19:23.670Z,100153.25
2022-10-25T00:24:26.507Z,100159.97
2022-10-25T00:29:29.387Z,100148.03
2022-10-25T00:34:32.399Z,100146.19
2022-10-25T00:39:35.200Z,100178.19
2022-10-25T00:44:41.047Z,100161.34
2022-10-25T00:49:44.321Z,100159.31
2022-10-25T00:54:50.546Z,100162.63
2022-10-25T00:59:53.899Z,100160.78
2022-10-25T01:04:56.867Z,100162.06
2022-10-25T01:09:59.734Z,100161.53
2022-10-25T01:15:03.024Z,100153.13
2022-10-25T01:20:45.859Z,100155.47
2022-10-25T01:25:55.688Z,100164.91
2022-10-25T01:31:32.970Z,100156.38
2022-10-25T01:36:43.733Z,100141.84
2022-10-25T01:42:00.431Z,100149.94
2022-10-25T01:47:06.731Z,100155.53
2022-10-25T01:52:09.548Z,100136.84
2022-10-25T01:58:11.415Z,100149.38
2022-10-25T02:03:22.747Z,100156.19
2022-10-25T02:08:50.546Z,100135.28
2022-10-25T02:14:15.539Z,100130.59
2022-10-25T02:19:23.658Z,100122.38
2022-10-25T02:24:28.414Z,100118.44
2022-10-25T02:29:32.729Z,100117.34
2022-10-25T02:34:35.463Z,100125.47
2022-10-25T02:39:38.288Z,100121.91
2022-10-25T02:44:58.905Z,100122.81
2022-10-25T02:50:01.776Z,100132.72
2022-10-25T02:55:04.884Z,100150.50
2022-10-25T03:00:08.548Z,100140.91
2022-10-25T03:05:11.355Z,100152.31
2022-10-25T03:10:14.124Z,100154.91
2022-10-25T03:15:16.894Z,100166.88
2022-10-25T03:20:19.803Z,100167.44
2022-10-25T03:25:22.526Z,100159.97
2022-10-25T03:30:26.343Z,100135.69
2022-10-25T03:35:29.158Z,100153.41
2022-10-25T03:40:32.134Z,100152.06
2022-10-25T03:45:34.845Z,100150.50
2022-10-25T03:50:37.742Z,100161.81
2022-10-25T03:55:40.566Z,100154.47
2022-10-25T04:00:43.462Z,100153.59
2022-10-25T04:05:46.294Z,100153.81
2022-10-25T04:10:49.006Z,100147.66
2022-10-25T04:15:51.754Z,100136.13
2022-10-25T04:20:58.467Z,100137.53
2022-10-25T04:26:01.251Z,100139.38
2022-10-25T04:31:04.280Z,100142.84
2022-10-25T04:36:07.338Z,100128.50
2022-10-25T04:41:10.256Z,100154.00
2022-10-25T04:46:13.628Z,100142.50
2022-10-25T04:51:16.626Z,100146.81
2022-10-25T04:56:19.386Z,100149.94
2022-10-25T05:01:22.271Z,100161.53
2022-10-25T05:06:26.852Z,100139.22
2022-10-25T05:11:29.790Z,100141.53
2022-10-25T05:16:35.131Z,100147.31
2022-10-25T05:21:37.997Z,100143.63
2022-10-25T05:26:40.705Z,100149.63
2022-10-25T05:31:44.083Z,100157.91
2022-10-25T05:36:47.010Z,100175.38
2022-10-25T05:41:50.231Z,100183.84
2022-10-25T05:46:53.247Z,100204.00
2022-10-25T05:51:56.035Z,100212.91
2022-10-25T05:56:58.878Z,100229.00
2022-10-25T06:02:01.836Z,100223.28
2022-10-25T06:07:04.990Z,100219.59
2022-10-25T06:12:09.603Z,100225.97
2022-10-25T06:17:13.776Z,100247.88
2022-10-25T06:22:16.573Z,100267.34
2022-10-25T06:27:19.372Z,100270.19
2022-10-25T06:32:21.914Z,100269.53
2022-10-25T06:37:24.900Z,100280.22
2022-10-25T06:42:27.588Z,100295.41
2022-10-25T06:47:30.345Z,100274.88
2022-10-25T06:52:33.167Z,100264.38
2022-10-25T06:57:35.905Z,100275.91
2022-10-25T07:02:38.667Z,100280.06
2022-10-25T07:07:41.484Z,100277.00
2022-10-25T07:12:44.289Z,100277.47
2022-10-25T07:17:47.363Z,100288.59
2022-10-25T07:22:50.317Z,100291.09
2022-10-25T07:27:53.226Z,100297.06
2022-10-25T07:32:56.456Z,100296.03
2022-10-25T07:37:59.315Z,100311.06
2022-10-25T07:43:02.069Z,100302.88
2022-10-25T07:48:05.305Z,100306.19
2022-10-25T07:53:08.339Z,100306.25
2022-10-25T07:58:12.122Z,100309.00
2022-10-25T08:03:16.307Z,100299.69
2022-10-25T08:08:20.959Z,100314.19
2022-10-25T08:13:23.947Z,100307.34
2022-10-25T08:18:26.885Z,100311.75
2022-10-25T08:23:31.648Z,100310.94
2022-10-25T08:28:34.676Z,100303.28
2022-10-25T08:33:37.414Z,100310.47
2022-10-25T08:38:40.173Z,100311.13
2022-10-25T08:44:12.048Z,100313.41
2022-10-25T08:49:44.200Z,100323.94
2022-10-25T08:54:47.403Z,100324.09
2022-10-25T08:59:55.285Z,100330.09
2022-10-25T09:04:58.131Z,100331.56
2022-10-25T09:10:00.859Z,100345.75
2022-10-25T09:15:21.782Z,100342.25
2022-10-25T09:20:33.001Z,100348.63
2022-10-25T09:26:02.538Z,100344.31
2022-10-25T09:31:08.281Z,100348.63
2022-10-25T09:36:12.491Z,100345.56
2022-10-25T09:41:24.842Z,100346.47
2022-10-25T09:46:38.175Z,100353.75
2022-10-25T09:51:57.566Z,100353.81
2022-10-25T09:57:00.360Z,100359.22
2022-10-25T10:02:03.732Z,100356.78
2022-10-25T10:07:16.812Z,100353.97
2022-10-25T10:12:51.570Z,100359.78
2022-10-25T10:18:20.881Z,100358.56
2022-10-25T10:23:24.454Z,100364.66
2022-10-25T10:28:27.102Z,100357.63
2022-10-25T10:33:32.392Z,100352.84
2022-10-25T10:38:52.892Z,100345.25
2022-10-25T10:44:14.508Z,100343.00
2022-10-25T10:49:18.890Z,100350.72
2022-10-25T10:54:25.467Z,100365.78
2022-10-25T10:59:34.788Z,100367.06
2022-10-25T11:04:55.217Z,100363.06
2022-10-25T11:10:15.961Z,100351.91
2022-10-25T11:15:18.750Z,100343.78
2022-10-25T11:20:26.623Z,100347.94
2022-10-25T11:25:38.589Z,100360.34
2022-10-25T11:31:19.688Z,100353.31
2022-10-25T11:36:48.943Z,100351.63
2022-10-25T11:41:55.514Z,100336.75
2022-10-25T11:47:32.351Z,100349.56
2022-10-25T11:53:00.069Z,100348.94
2022-10-25T11:58:30.358Z,100345.81
2022-10-25T12:03:48.008Z,100350.38
2022-10-25T12:09:09.518Z,100357.81
2022-10-25T12:14:15.349Z,100359.03
2022-10-25T12:19:24.580Z,100361.53
2022-10-25T12:24:34.785Z,100357.38
2022-10-25T12:29:41.439Z,100356.16
2022-10-25T12:34:48.002Z,100351.19
2022-10-25T12:39:52.337Z,100362.38
2022-10-25T12:45:12.176Z,100363.19
2022-10-25T12:50:50.636Z,100358.03
2022-10-25T12:55:56.702Z,100339.81
2022-10-25T13:01:21.317Z,100334.66
2022-10-25T13:06:29.903Z,100349.13
2022-10-25T13:11:42.166Z,100347.28
2022-10-25T13:16:45.087Z,100357.41
2022-10-25T13:21:53.888Z,100357.78
2022-10-25T13:27:14.946Z,100352.84
2022-10-25T13:32:20.325Z,100359.47
2022-10-25T13:37:33.086Z,100365.22
2022-10-25T13:42:37.707Z,100361.31
2022-10-25T13:47:45.578Z,100354.44
2022-10-25T13:52:56.015Z,100365.84
2022-10-25T13:58:02.013Z,100367.28
2022-10-25T14:03:13.091Z,100365.00
2022-10-25T14:08:46.847Z,100366.66
2022-10-25T14:13:58.294Z,100374.34
2022-10-25T14:19:15.074Z,100376.84
2022-10-25T14:24:19.561Z,100382.19
2022-10-25T14:29:24.021Z,100385.50
2022-10-25T14:34:28.547Z,100373.94
2022-10-25T14:39:31.933Z,100380.16
2022-10-25T14:44:46.731Z,100376.03
2022-10-25T14:49:49.450Z,100381.00
2022-10-25T14:54:59.573Z,100380.59
2022-10-25T15:00:04.634Z,100392.97
2022-10-25T15:05:17.363Z,100387.16
2022-10-25T15:10:43.422Z,100397.06
2022-10-25T15:15:47.986Z,100397.44
2022-10-25T15:21:21.556Z,100396.78
2022-10-25T15:26:34.623Z,100403.50
2022-10-25T15:31:43.868Z,100412.22
2022-10-25T15:36:46.932Z,100404.69
2022-10-25T15:41:50.189Z,100403.47
2022-10-25T15:46:52.845Z,100405.78
2022-10-25T15:51:56.217Z,100400.84
2022-10-25T15:56:58.997Z,100396.72
2022-10-25T16:02:03.465Z,100406.56
2022-10-25T16:07:06.186Z,100402.56
2022-10-25T16:12:14.121Z,100405.19
2022-10-25T16:17:16.890Z,100409.44
2022-10-25T16:22:19.563Z,100416.53
2022-10-25T16:27:22.362Z,100435.94
2022-10-25T16:32:25.169Z,100437.72
2022-10-25T16:37:27.956Z,100441.97
2022-10-25T16:42:33.262Z,100446.72
2022-10-25T16:47:39.680Z,100438.06
2022-10-25T16:52:42.491Z,100436.06
2022-10-25T16:57:45.781Z,100447.56
2022-10-25T17:02:48.950Z,100450.28
2022-10-25T17:07:52.203Z,100449.03
2022-10-25T17:13:01.641Z,100465.13
2022-10-25T17:18:04.783Z,100475.25
2022-10-25T17:23:07.654Z,100472.78
2022-10-25T17:28:10.426Z,100479.94
2022-10-25T17:33:13.337Z,100478.44
2022-10-25T17:38:16.150Z,100484.53
2022-10-25T17:43:19.552Z,100485.34
2022-10-25T17:48:22.447Z,100485.09
2022-10-25T17:53:25.314Z,100476.03
2022-10-25T17:58:28.083Z,100483.81
2022-10-25T18:03:31.568Z,100484.28
2022-10-25T18:08:36.416Z,100484.66
2022-10-25T18:13:40.808Z,100482.16
2022-10-25T18:18:43.684Z,100474.50
2022-10-25T18:23:46.477Z,100473.69
2022-10-25T18:28:50.170Z,100468.34
2022-10-25T18:33:55.418Z,100465.31
2022-10-25T18:38:58.272Z,100465.41
2022-10-25T18:44:02.959Z,100467.41
2022-10-25T18:49:05.781Z,100472.06
2022-10-25T18:54:10.195Z,100460.81
2022-10-25T18:59:13.070Z,100456.78
2022-10-25T19:04:15.819Z,100457.44
2022-10-25T19:09:18.551Z,100455.13
2022-10-25T19:14:21.428Z,100459.34
2022-10-25T19:19:24.047Z,100467.97
2022-10-25T19:24:26.843Z,100471.53
2022-10-25T19:29:29.543Z,100473.44
2022-10-25T19:34:32.298Z,100475.84
2022-10-25T19:39:36.052Z,100487.56
2022-10-25T19:44:39.344Z,100495.13
2022-10-25T19:49:42.353Z,100480.84
2022-10-25T19:54:45.126Z,100486.72
2022-10-25T19:59:47.913Z,100489.38
2022-10-25T20:04:50.768Z,100491.88
2022-10-25T20:09:53.708Z,100500.38
2022-10-25T20:14:57.590Z,100507.22
2022-10-25T20:20:00.390Z,100506.09
2022-10-25T20:25:04.690Z,100513.81
2022-10-25T20:30:07.837Z,100509.50
2022-10-25T20:35:10.595Z,100513.81
2022-10-25T20:40:13.406Z,100530.13
2022-10-25T20:45:16.025Z,100536.75
2022-10-25T20:50:18.759Z,100536.72
2022-10-25T20:55:22.858Z,100548.69
2022-10-25T21:00:25.625Z,100544.47
2022-10-25T21:05:28.481Z,100550.72
2022-10-25T21:10:31.273Z,100548.16
2022-10-25T21:15:34.947Z,100545.03
2022-10-25T21:20:37.720Z,100539.34
2022-10-25T21:25:41.042Z,100549.63
2022-10-25T21:30:46.005Z,100547.75
2022-10-25T21:35:48.829Z,100546.28
2022-10-25T21:40:51.692Z,100545.94
2022-10-25T21:45:58.938Z,100546.72
2022-10-25T21:51:01.887Z,100548.25
2022-10-25T21:56:15.238Z,100542.28
2022-10-25T22:01:21.669Z,100545.56
2022-10-25T22:06:27.221Z,100542.19
2022-10-25T22:11:32.678Z,100545.63
2022-10-25T22:16:36.083Z,100544.44
2022-10-25T22:21:39.929Z,100548.94
2022-10-25T22:26:44.466Z,100553.38
2022-10-25T22:31:47.246Z,100564.75
2022-10-25T22:36:50.062Z,100560.22
2022-10-25T22:41:53.921Z,100558.19
2022-10-25T22:46:56.516Z,100571.59
2022-10-25T22:51:59.538Z,100570.81
2022-10-25T22:57:02.330Z,100558.78
2022-10-25T23:02:05.091Z,100571.66
2022-10-25T23:07:07.603Z,100575.72
2022-10-25T23:12:10.324Z,100571.78
2022-10-25T23:17:13.218Z,100569.81
2022-10-25T23:22:16.063Z,100569.94
2022-10-25T23:27:18.767Z,100563.88
2022-10-25T23:32:21.536Z,100571.47
2022-10-25T23:37:24.218Z,100578.22
2022-10-25T23:42:26.978Z,100574.50
2022-10-25T23:47:31.066Z,100571.63
2022-10-25T23:52:34.036Z,100576.56
2022-10-25T23:57:36.594Z,100572.16
